createdAt,value
2022-10-01T00:01:19.710Z,9.02
2022-10-01T00:03:46.707Z,8.75
2022-10-01T00:06:19.538Z,8.50
2022-10-01T00:08:49.613Z,9.15
2022-10-01T00:11:18.507Z,9.57
2022-10-01T00:13:45.869Z,9.98
2022-10-01T00:16:15.884Z,9.60
2022-10-01T00:18:44.807Z,9.13
2022-10-01T00:21:15.169Z,9.32
2022-10-01T00:23:42.816Z,10.38
2022-10-01T00:26:13.917Z,10.90
2022-10-01T00:28:43.537Z,10.10
2022-10-01T00:31:11.040Z,9.68
2022-10-01T00:33:38.849Z,10.68
2022-10-01T00:36:07.290Z,10.05
2022-10-01T00:38:35.318Z,9.82
2022-10-01T00:41:03.850Z,9.50
2022-10-01T00:43:36.268Z,10.68
2022-10-01T00:46:20.828Z,9.48
2022-10-01T00:49:13.821Z,10.60
2022-10-01T00:51:48.603Z,9.95
2022-10-01T00:54:23.989Z,9.57
2022-10-01T00:56:57.623Z,10.10
2022-10-01T00:59:24.779Z,10.43
2022-10-01T01:01:51.714Z,10.63
2022-10-01T01:04:18.589Z,11.43
2022-10-01T01:06:53.446Z,10.98
2022-10-01T01:09:21.364Z,10.68
2022-10-01T01:12:00.253Z,11.93
2022-10-01T01:14:49.843Z,11.27
2022-10-01T01:17:30.548Z,10.80
2022-10-01T01:20:12.509Z,11.88
2022-10-01T01:22:46.873Z,11.60
2022-10-01T01:25:24.785Z,11.27
2022-10-01T01:28:29.043Z,12.23
2022-10-01T01:31:04.753Z,11.32
2022-10-01T01:33:35.789Z,9.93
2022-10-01T01:36:15.965Z,10.63
2022-10-01T01:38:53.691Z,10.02
2022-10-01T01:41:26.051Z,11.90
2022-10-01T01:43:59.675Z,11.10
2022-10-01T01:46:29.110Z,12.98
2022-10-01T01:48:55.966Z,12.98
2022-10-01T01:51:30.363Z,16.13
2022-10-01T01:53:57.464Z,13.30
2022-10-01T01:56:24.497Z,11.70
2022-10-01T01:58:53.085Z,14.13
2022-10-01T02:01:40.455Z,12.82
2022-10-01T02:04:20.464Z,12.68
2022-10-01T02:06:52.859Z,12.38
2022-10-01T02:09:35.966Z,11.88
2022-10-01T02:12:21.756Z,13.73
2022-10-01T02:14:58.545Z,11.35
2022-10-01T02:17:32.727Z,10.70
2022-10-01T02:20:07.517Z,10.68
2022-10-01T02:22:36.997Z,9.00
2022-10-01T02:25:07.181Z,9.17
2022-10-01T02:27:40.385Z,8.65
2022-10-01T02:30:10.858Z,11.77
2022-10-01T02:32:45.067Z,8.57
2022-10-01T02:35:15.834Z,9.13
2022-10-01T02:37:44.694Z,9.00
2022-10-01T02:40:18.092Z,8.02
2022-10-01T02:42:53.101Z,9.32
2022-10-01T02:45:23.460Z,9.77
2022-10-01T02:48:04.571Z,7.70
2022-10-01T02:50:41.217Z,7.90
2022-10-01T02:53:37.289Z,8.77
2022-10-01T02:56:05.759Z,8.13
2022-10-01T02:58:34.870Z,10.13
2022-10-01T03:01:01.850Z,9.50
2022-10-01T03:03:28.672Z,7.40
2022-10-01T03:05:55.411Z,10.23
2022-10-01T03:08:22.211Z,9.02
2022-10-01T03:10:49.062Z,8.80
2022-10-01T03:13:15.927Z,9.45
2022-10-01T03:15:45.794Z,10.80
2022-10-01T03:18:12.584Z,9.73
2022-10-01T03:20:39.378Z,11.02
2022-10-01T03:23:06.094Z,10.63
2022-10-01T03:25:32.844Z,10.48
2022-10-01T03:27:59.751Z,10.93
2022-10-01T03:30:26.594Z,10.43
2022-10-01T03:32:53.453Z,11.35
2022-10-01T03:35:20.215Z,11.40
2022-10-01T03:37:46.977Z,12.68
2022-10-01T03:40:13.786Z,10.93
2022-10-01T03:42:40.544Z,11.50
2022-10-01T03:45:07.795Z,12.40
2022-10-01T03:47:34.713Z,10.98
2022-10-01T03:50:01.517Z,13.35
2022-10-01T03:52:28.364Z,11.60
2022-10-01T03:54:55.184Z,13.82
2022-10-01T03:57:22.116Z,12.13
2022-10-01T03:59:48.911Z,12.75
2022-10-01T04:02:15.751Z,12.90
2022-10-01T04:04:42.650Z,11.70
2022-10-01T04:07:09.396Z,10.80
2022-10-01T04:09:36.726Z,11.57
2022-10-01T04:12:03.677Z,12.18
2022-10-01T04:14:30.430Z,13.57
2022-10-01T04:16:57.268Z,11.80
2022-10-01T04:19:24.048Z,12.18
2022-10-01T04:21:50.879Z,11.82
2022-10-01T04:24:17.628Z,10.55
2022-10-01T04:26:44.438Z,9.88
2022-10-01T04:29:11.260Z,11.73
2022-10-01T04:31:38.342Z,9.95
2022-10-01T04:34:05.758Z,9.70
2022-10-01T04:36:32.568Z,9.40
2022-10-01T04:39:02.130Z,10.25
2022-10-01T04:41:31.257Z,9.48
2022-10-01T04:43:59.341Z,9.18
2022-10-01T04:46:26.502Z,9.80
2022-10-01T04:48:53.309Z,9.43
2022-10-01T04:51:20.273Z,11.68
2022-10-01T04:53:47.112Z,11.87
2022-10-01T04:56:13.902Z,8.98
2022-10-01T04:58:40.662Z,10.02
2022-10-01T05:01:07.631Z,10.10
2022-10-01T05:03:34.514Z,10.45
2022-10-01T05:06:01.501Z,9.27
2022-10-01T05:08:28.311Z,8.93
2022-10-01T05:10:55.095Z,8.60
2022-10-01T05:13:21.835Z,9.75
2022-10-01T05:15:49.770Z,9.70
2022-10-01T05:18:16.734Z,9.77
2022-10-01T05:20:43.452Z,9.75
2022-10-01T05:23:10.214Z,9.13
2022-10-01T05:25:37.057Z,10.07
2022-10-01T05:28:03.906Z,9.52
2022-10-01T05:30:31.395Z,9.73
2022-10-01T05:33:01.023Z,9.68
2022-10-01T05:35:28.576Z,9.70
2022-10-01T05:38:01.224Z,11.30
2022-10-01T05:40:29.197Z,9.38
2022-10-01T05:42:58.247Z,10.37
2022-10-01T05:45:27.697Z,9.88
2022-10-01T05:47:58.073Z,9.05
2022-10-01T05:50:25.371Z,9.18
2022-10-01T05:52:52.465Z,9.27
2022-10-01T05:55:19.939Z,10.17
2022-10-01T05:57:54.446Z,8.93
2022-10-01T06:00:21.356Z,9.45
2022-10-01T06:02:52.685Z,9.93
2022-10-01T06:05:20.646Z,10.98
2022-10-01T06:07:48.446Z,8.00
2022-10-01T06:10:15.730Z,9.45
2022-10-01T06:12:42.597Z,8.95
2022-10-01T06:15:10.698Z,7.97
2022-10-01T06:17:37.522Z,8.90
2022-10-01T06:20:04.636Z,10.30
2022-10-01T06:22:31.492Z,10.10
2022-10-01T06:24:58.232Z,10.18
2022-10-01T06:27:25.231Z,9.85
2022-10-01T06:29:52.017Z,8.20
2022-10-01T06:32:18.735Z,11.17
2022-10-01T06:34:45.909Z,8.98
2022-10-01T06:37:12.932Z,8.77
2022-10-01T06:39:39.652Z,9.07
2022-10-01T06:42:06.544Z,10.55
2022-10-01T06:44:33.307Z,8.93
2022-10-01T06:47:00.055Z,8.70
2022-10-01T06:49:26.782Z,9.32
2022-10-01T06:51:53.590Z,9.02
2022-10-01T06:54:20.303Z,8.82
2022-10-01T06:56:48.105Z,8.87
2022-10-01T06:59:14.975Z,8.10
2022-10-01T07:01:41.778Z,11.63
2022-10-01T07:04:08.589Z,12.13
2022-10-01T07:06:35.334Z,8.35
2022-10-01T07:09:02.105Z,9.93
2022-10-01T07:11:28.876Z,8.90
2022-10-01T07:13:55.655Z,9.63
2022-10-01T07:16:22.633Z,9.93
2022-10-01T07:18:49.478Z,9.45
2022-10-01T07:21:16.253Z,9.00
2022-10-01T07:23:43.000Z,7.57
2022-10-01T07:26:10.618Z,8.55
2022-10-01T07:28:37.538Z,8.35
2022-10-01T07:31:07.010Z,9.10
2022-10-01T07:33:33.903Z,9.10
2022-10-01T07:36:02.508Z,8.82
2022-10-01T07:38:29.480Z,8.55
2022-10-01T07:40:57.041Z,9.38
2022-10-01T07:43:24.079Z,8.90
2022-10-01T07:45:54.565Z,7.72
2022-10-01T07:48:21.474Z,7.93
2022-10-01T07:50:48.267Z,7.72
2022-10-01T07:53:15.362Z,7.68
2022-10-01T07:55:42.695Z,8.05
2022-10-01T07:58:10.006Z,8.05
2022-10-01T08:00:36.894Z,7.47
2022-10-01T08:03:04.562Z,7.57
2022-10-01T08:05:34.033Z,7.40
2022-10-01T08:08:03.776Z,8.00
2022-10-01T08:10:31.694Z,7.28
2022-10-01T08:13:08.005Z,9.82
2022-10-01T08:15:35.328Z,8.27
2022-10-01T08:18:03.842Z,6.63
2022-10-01T08:20:31.425Z,7.82
2022-10-01T08:23:05.275Z,7.53
2022-10-01T08:25:32.717Z,6.22
2022-10-01T08:27:59.526Z,6.00
2022-10-01T08:30:27.489Z,8.10
2022-10-01T08:32:59.447Z,5.97
2022-10-01T08:35:27.369Z,5.63
2022-10-01T08:37:54.398Z,6.07
2022-10-01T08:40:22.025Z,6.43
2022-10-01T08:42:57.325Z,8.43
2022-10-01T08:45:29.104Z,6.10
2022-10-01T08:48:02.171Z,6.13
2022-10-01T08:50:42.002Z,5.32
2022-10-01T08:53:16.708Z,5.10
2022-10-01T08:55:47.167Z,5.13
2022-10-01T08:58:23.686Z,5.53
2022-10-01T09:00:50.695Z,4.47
2022-10-01T09:03:19.011Z,5.68
2022-10-01T09:06:00.770Z,4.50
2022-10-01T09:09:08.801Z,5.05
2022-10-01T09:12:04.316Z,3.45
2022-10-01T09:14:40.252Z,4.68
2022-10-01T09:17:31.717Z,5.43
2022-10-01T09:20:10.405Z,5.75
2022-10-01T09:22:40.743Z,3.72
2022-10-01T09:25:27.797Z,5.45
2022-10-01T09:28:03.273Z,4.00
2022-10-01T09:30:31.905Z,3.75
2022-10-01T09:33:05.268Z,4.10
2022-10-01T09:35:46.633Z,4.03
2022-10-01T09:38:39.066Z,3.10
2022-10-01T09:41:08.532Z,4.60
2022-10-01T09:43:39.185Z,5.68
2022-10-01T09:46:08.345Z,3.33
2022-10-01T09:48:40.893Z,4.32
2022-10-01T09:51:30.327Z,3.78
2022-10-01T09:54:22.138Z,4.10
2022-10-01T09:56:56.444Z,5.28
2022-10-01T09:59:41.032Z,4.20
2022-10-01T10:02:18.236Z,4.50
2022-10-01T10:04:45.117Z,4.47
2022-10-01T10:07:17.664Z,4.03
2022-10-01T10:09:45.398Z,6.82
2022-10-01T10:12:41.911Z,8.05
2022-10-01T10:15:15.133Z,9.38
2022-10-01T10:17:44.498Z,9.43
2022-10-01T10:20:20.914Z,8.23
2022-10-01T10:22:47.669Z,7.70
2022-10-01T10:25:22.516Z,9.85
2022-10-01T10:27:56.278Z,7.85
2022-10-01T10:30:24.701Z,7.43
2022-10-01T10:32:54.313Z,8.93
2022-10-01T10:35:25.748Z,10.18
2022-10-01T10:37:57.701Z,8.70
2022-10-01T10:40:45.613Z,8.27
2022-10-01T10:43:20.985Z,7.55
2022-10-01T10:45:50.976Z,7.07
2022-10-01T10:48:19.120Z,7.05
2022-10-01T10:50:47.283Z,6.72
2022-10-01T10:53:20.696Z,9.15
2022-10-01T10:55:54.675Z,14.60
2022-10-01T10:58:25.546Z,10.32
2022-10-01T11:00:55.980Z,7.00
2022-10-01T11:03:26.406Z,7.28
2022-10-01T11:05:54.056Z,7.32
2022-10-01T11:08:24.518Z,6.25
2022-10-01T11:11:06.307Z,6.50
2022-10-01T11:14:02.079Z,6.55
2022-10-01T11:17:23.268Z,6.68
2022-10-01T11:20:28.626Z,5.95
2022-10-01T11:23:34.991Z,7.05
2022-10-01T11:26:10.531Z,6.35
2022-10-01T11:28:43.168Z,5.40
2022-10-01T11:31:53.967Z,7.35
2022-10-01T11:34:32.862Z,8.32
2022-10-01T11:37:27.242Z,7.20
2022-10-01T11:39:58.670Z,5.85
2022-10-01T11:42:34.244Z,6.75
2022-10-01T11:45:10.991Z,5.15
2022-10-01T11:47:44.243Z,5.55
2022-10-01T11:50:20.773Z,5.80
2022-10-01T11:52:56.496Z,5.90
2022-10-01T11:55:35.160Z,5.68
2022-10-01T11:58:31.144Z,5.78
2022-10-01T12:01:21.042Z,6.43
2022-10-01T12:03:53.730Z,5.57
2022-10-01T12:06:33.605Z,5.90
2022-10-01T12:09:19.953Z,7.40
2022-10-01T12:12:10.181Z,5.88
2022-10-01T12:14:55.708Z,6.38
2022-10-01T12:17:54.196Z,5.30
2022-10-01T12:20:36.373Z,4.70
2022-10-01T12:23:06.134Z,4.25
2022-10-01T12:26:17.823Z,4.03
2022-10-01T12:28:54.578Z,3.58
2022-10-01T12:31:40.201Z,3.85
2022-10-01T12:34:18.837Z,3.50
2022-10-01T12:37:14.509Z,5.22
2022-10-01T12:39:52.676Z,4.95
2022-10-01T12:42:47.316Z,4.07
2022-10-01T12:45:14.126Z,4.32
2022-10-01T12:47:55.699Z,4.85
2022-10-01T12:50:45.046Z,4.97
2022-10-01T12:53:25.889Z,4.93
2022-10-01T12:56:12.059Z,4.22
2022-10-01T12:59:14.437Z,4.20
2022-10-01T13:02:16.363Z,4.95
2022-10-01T13:04:58.166Z,2.70
2022-10-01T13:07:43.571Z,2.90
2022-10-01T13:10:28.099Z,1.88
2022-10-01T13:13:03.611Z,1.60
2022-10-01T13:15:35.930Z,1.25
2022-10-01T13:18:32.241Z,2.53
2022-10-01T13:21:17.234Z,1.80
2022-10-01T13:23:58.964Z,2.55
2022-10-01T13:26:41.927Z,3.08
2022-10-01T13:29:31.036Z,1.95
2022-10-01T13:32:00.923Z,1.60
2022-10-01T13:34:40.205Z,1.75
2022-10-01T13:37:29.897Z,1.40
2022-10-01T13:40:00.322Z,1.63
2022-10-01T13:42:31.064Z,1.70
2022-10-01T13:45:06.787Z,1.20
2022-10-01T13:47:36.936Z,1.92
2022-10-01T13:50:18.415Z,1.75
2022-10-01T13:52:45.449Z,1.50
2022-10-01T13:55:27.566Z,1.98
2022-10-01T13:58:06.238Z,2.40
2022-10-01T14:00:33.507Z,2.42
2022-10-01T14:03:23.816Z,1.40
2022-10-01T14:05:57.765Z,4.15
2022-10-01T14:08:34.508Z,1.70
2022-10-01T14:11:09.663Z,2.47
2022-10-01T14:13:45.867Z,2.33
2022-10-01T14:16:13.679Z,1.40
2022-10-01T14:18:43.781Z,1.92
2022-10-01T14:21:34.840Z,1.90
2022-10-01T14:24:23.047Z,1.55
2022-10-01T14:26:49.809Z,2.28
2022-10-01T14:29:58.441Z,1.75
2022-10-01T14:32:31.117Z,2.22
2022-10-01T14:35:20.369Z,2.28
2022-10-01T14:37:47.403Z,2.13
2022-10-01T14:40:22.206Z,2.50
2022-10-01T14:42:58.621Z,2.13
2022-10-01T14:45:26.072Z,2.22
2022-10-01T14:48:07.318Z,2.13
2022-10-01T14:50:37.510Z,1.98
2022-10-01T14:53:06.501Z,1.95
2022-10-01T14:55:35.312Z,2.00
2022-10-01T14:58:02.410Z,1.98
2022-10-01T15:00:31.330Z,3.05
2022-10-01T15:03:13.307Z,1.85
2022-10-01T15:05:40.149Z,2.65
2022-10-01T15:08:23.315Z,2.47
2022-10-01T15:10:53.523Z,2.60
2022-10-01T15:13:31.335Z,3.60
2022-10-01T15:15:58.332Z,6.05
2022-10-01T15:18:26.465Z,3.22
2022-10-01T15:21:06.834Z,2.97
2022-10-01T15:23:36.226Z,3.08
2022-10-01T15:26:06.664Z,2.50
2022-10-01T15:28:36.070Z,2.60
2022-10-01T15:31:05.471Z,3.03
2022-10-01T15:33:36.348Z,2.70
2022-10-01T15:36:06.022Z,2.75
2022-10-01T15:38:33.847Z,2.95
2022-10-01T15:41:26.630Z,2.67
2022-10-01T15:43:52.108Z,2.80
2022-10-01T15:46:25.075Z,3.10
2022-10-01T15:49:11.834Z,4.07
2022-10-01T15:51:50.671Z,3.58
2022-10-01T15:54:17.554Z,3.90
2022-10-01T15:56:47.799Z,3.10
2022-10-01T15:59:20.537Z,3.65
2022-10-01T16:01:47.620Z,4.85
2022-10-01T16:04:14.831Z,3.63
2022-10-01T16:06:48.519Z,4.45
2022-10-01T16:09:19.854Z,4.43
2022-10-01T16:11:52.530Z,3.42
2022-10-01T16:14:32.705Z,4.35
2022-10-01T16:17:17.608Z,4.00
2022-10-01T16:19:46.163Z,4.13
2022-10-01T16:22:34.571Z,3.53
2022-10-01T16:25:05.166Z,3.28
2022-10-01T16:27:48.404Z,2.70
2022-10-01T16:30:27.126Z,3.33
2022-10-01T16:32:55.350Z,3.30
2022-10-01T16:35:24.068Z,5.43
2022-10-01T16:37:53.331Z,3.75
2022-10-01T16:40:22.994Z,4.15
2022-10-01T16:42:51.229Z,4.07
2022-10-01T16:45:22.516Z,3.45
2022-10-01T16:47:49.375Z,4.07
2022-10-01T16:50:18.464Z,4.00
2022-10-01T16:52:45.292Z,4.07
2022-10-01T16:55:31.516Z,3.35
2022-10-01T16:57:58.337Z,5.00
2022-10-01T17:00:27.185Z,3.15
2022-10-01T17:02:54.967Z,3.90
2022-10-01T17:05:27.473Z,3.78
2022-10-01T17:07:55.777Z,3.85
2022-10-01T17:10:23.759Z,3.45
2022-10-01T17:12:51.169Z,4.20
2022-10-01T17:15:20.875Z,3.65
2022-10-01T17:17:47.659Z,3.10
2022-10-01T17:20:15.319Z,2.60
2022-10-01T17:22:42.129Z,3.60
2022-10-01T17:25:15.479Z,1.83
2022-10-01T17:27:42.338Z,3.70
2022-10-01T17:30:09.451Z,1.60
2022-10-01T17:32:36.363Z,1.33
2022-10-01T17:35:04.418Z,1.02
2022-10-01T17:37:31.265Z,1.40
2022-10-01T17:39:58.083Z,1.38
2022-10-01T17:42:24.934Z,1.20
2022-10-01T17:44:51.707Z,1.50
2022-10-01T17:47:18.515Z,1.38
2022-10-01T17:49:45.244Z,1.75
2022-10-01T17:52:12.112Z,1.20
2022-10-01T17:54:39.221Z,1.33
2022-10-01T17:57:06.070Z,1.10
2022-10-01T17:59:32.891Z,1.65
2022-10-01T18:01:59.738Z,1.48
2022-10-01T18:04:26.835Z,1.63
2022-10-01T18:06:57.949Z,1.65
2022-10-01T18:09:26.563Z,1.13
2022-10-01T18:11:53.404Z,1.27
2022-10-01T18:14:20.152Z,2.33
2022-10-01T18:16:47.000Z,1.48
2022-10-01T18:22:00.865Z,1.40
2022-10-01T18:24:28.567Z,2.08
2022-10-01T18:26:56.575Z,1.50
2022-10-01T18:29:37.760Z,1.40
2022-10-01T18:32:23.316Z,1.95
2022-10-01T18:34:58.637Z,1.13
2022-10-01T18:37:40.156Z,1.10
2022-10-01T18:40:35.977Z,1.97
2022-10-01T18:43:24.434Z,3.30
2022-10-01T18:46:35.747Z,1.35
2022-10-01T18:49:25.741Z,1.30
2022-10-01T18:52:18.738Z,1.20
2022-10-01T18:54:57.766Z,1.23
2022-10-01T18:57:46.123Z,1.67
2022-10-01T19:00:15.679Z,1.13
2022-10-01T19:02:57.896Z,1.33
2022-10-01T19:05:36.618Z,2.38
2022-10-01T19:08:28.925Z,1.13
2022-10-01T19:11:24.758Z,1.60
2022-10-01T19:14:31.851Z,1.30
2022-10-01T19:17:17.435Z,1.45
2022-10-01T19:20:02.822Z,1.58
2022-10-01T19:22:58.525Z,1.70
2022-10-01T19:25:29.057Z,1.63
2022-10-01T19:28:14.183Z,1.92
2022-10-01T19:31:17.739Z,1.40
2022-10-01T19:33:49.177Z,2.72
2022-10-01T19:36:32.426Z,1.80
2022-10-01T19:39:04.867Z,1.30
2022-10-01T19:41:51.636Z,1.60
2022-10-01T19:44:27.295Z,1.60
2022-10-01T19:47:14.870Z,2.78
2022-10-01T19:49:42.558Z,1.70
2022-10-01T19:52:14.245Z,3.83
2022-10-01T19:54:46.332Z,2.92
2022-10-01T19:57:13.056Z,1.80
2022-10-01T19:59:40.924Z,2.58
2022-10-01T20:02:31.759Z,1.97
2022-10-01T20:05:06.190Z,1.67
2022-10-01T20:07:45.951Z,2.13
2022-10-01T20:10:18.662Z,4.57
2022-10-01T20:12:45.639Z,2.28
2022-10-01T20:15:29.187Z,2.07
2022-10-01T20:18:28.470Z,1.75
2022-10-01T20:21:33.763Z,2.25
2022-10-01T20:24:09.570Z,1.70
2022-10-01T20:26:58.890Z,1.90
2022-10-01T20:29:55.222Z,1.47
2022-10-01T20:32:30.878Z,4.13
2022-10-01T20:35:22.209Z,1.83
2022-10-01T20:37:55.992Z,1.10
2022-10-01T20:40:38.662Z,1.58
2022-10-01T20:43:20.612Z,1.40
2022-10-01T20:45:51.566Z,1.63
2022-10-01T20:48:24.190Z,1.38
2022-10-01T20:50:53.564Z,2.05
2022-10-01T20:53:34.643Z,1.25
2022-10-01T20:56:10.532Z,2.00
2022-10-01T20:58:48.703Z,1.58
2022-10-01T21:01:22.209Z,1.70
2022-10-01T21:04:03.925Z,2.28
2022-10-01T21:06:42.432Z,1.50
2022-10-01T21:09:22.435Z,1.77
2022-10-01T21:12:15.665Z,1.30
2022-10-01T21:14:49.439Z,1.60
2022-10-01T21:17:21.259Z,1.45
2022-10-01T21:19:51.197Z,2.55
2022-10-01T21:22:30.078Z,1.73
2022-10-01T21:25:25.135Z,7.63
2022-10-01T21:28:29.281Z,2.17
2022-10-01T21:31:30.240Z,4.10
2022-10-01T21:34:13.493Z,2.75
2022-10-01T21:36:55.928Z,1.30
2022-10-01T21:39:33.571Z,1.40
2022-10-01T21:42:44.839Z,1.13
2022-10-01T21:45:40.993Z,1.48
2022-10-01T21:48:19.949Z,1.95
2022-10-01T21:50:56.403Z,1.20
2022-10-01T21:53:32.390Z,1.58
2022-10-01T21:56:21.472Z,1.15
2022-10-01T21:59:27.569Z,1.60
2022-10-01T22:02:28.540Z,1.50
2022-10-01T22:05:11.540Z,1.40
2022-10-01T22:08:00.535Z,1.63
2022-10-01T22:10:36.411Z,1.85
2022-10-01T22:13:14.183Z,0.85
2022-10-01T22:15:43.862Z,2.03
2022-10-01T22:18:24.407Z,1.20
2022-10-01T22:20:52.717Z,1.20
2022-10-01T22:23:20.047Z,2.33
2022-10-01T22:26:03.451Z,1.08
2022-10-01T22:28:37.706Z,1.95
2022-10-01T22:31:07.650Z,2.57
2022-10-01T22:33:40.315Z,0.85
2022-10-01T22:36:07.229Z,1.42
2022-10-01T22:38:47.969Z,1.40
2022-10-01T22:41:54.592Z,0.88
2022-10-01T22:44:23.508Z,1.33
2022-10-01T22:46:59.291Z,0.95
2022-10-01T22:50:00.659Z,1.08
2022-10-01T22:52:39.857Z,1.10
2022-10-01T22:55:34.023Z,1.20
2022-10-01T22:58:31.770Z,0.97
2022-10-01T23:01:25.778Z,1.15
2022-10-01T23:04:04.145Z,1.02
2022-10-01T23:06:36.687Z,0.90
2022-10-01T23:09:13.706Z,2.50
2022-10-01T23:11:52.154Z,1.00
2022-10-01T23:14:18.911Z,2.15
2022-10-01T23:16:51.471Z,1.73
2022-10-01T23:19:41.109Z,0.93
2022-10-01T23:22:35.210Z,1.77
2022-10-01T23:25:48.448Z,1.00
2022-10-01T23:28:25.774Z,1.00
2022-10-01T23:31:04.789Z,1.48
2022-10-01T23:34:02.830Z,0.90
2022-10-01T23:36:53.374Z,1.35
2022-10-01T23:39:32.981Z,0.70
2022-10-01T23:42:14.392Z,0.70
2022-10-01T23:44:53.400Z,1.30
2022-10-01T23:47:28.951Z,1.55
2022-10-01T23:49:58.052Z,0.90
2022-10-01T23:52:40.880Z,2.10
2022-10-01T23:55:36.234Z,0.80
2022-10-01T23:58:07.993Z,1.05
